Time;durP1;ratioP1;P1;durP2;ratioP2;P2;SDS_P1;SDS_P2;PMS_P1;PMS_P2;Temp;Humidity;BMP_temperature;BMP_pressure;BME280_temperature;BME280_humidity;BME280_pressure;Samples;Min_cycle;Max_cycle;Signal;HPM_P1;HPM_P2
2023/03/17 00:00:28;;;;;;;4.10;2.70;;;;;;;;;;5039424;28;20434;-69
2023/03/17 00:02:53;;;;;;;6.80;3.40;;;;;;;;;;5031263;28;20191;-68
2023/03/17 00:05:18;;;;;;;5.43;3.20;;;;;;;;;;5029920;28;20207;-68
2023/03/17 00:07:45;;;;;;;5.70;3.07;;;;;;;;;;5033820;28;20756;-68
2023/03/17 00:10:18;;;;;;;3.90;3.00;;;;;;;;;;5053374;28;20183;-68
2023/03/17 00:12:43;;;;;;;3.90;3.23;;;;;;;;;;5035982;28;20426;-68
2023/03/17 00:15:09;;;;;;;3.77;2.97;;;;;;;;;;5032189;28;20448;-68
2023/03/17 00:17:35;;;;;;;3.60;2.63;;;;;;;;;;5037128;28;20688;-68
2023/03/17 00:20:01;;;;;;;2.80;2.47;;;;;;;;;;5039479;28;20180;-68
2023/03/17 00:22:26;;;;;;;3.93;2.77;;;;;;;;;;5038761;28;20465;-68
2023/03/17 00:24:51;;;;;;;3.80;2.90;;;;;;;;;;5038217;28;20176;-68
2023/03/17 00:27:16;;;;;;;4.83;3.00;;;;;;;;;;5036424;28;20243;-68
2023/03/17 00:29:42;;;;;;;3.53;2.90;;;;;;;;;;5037344;28;20631;-68
2023/03/17 00:32:15;;;;;;;4.30;3.63;;;;;;;;;;5039094;28;20211;-69
2023/03/17 00:34:41;;;;;;;3.40;2.60;;;;;;;;;;5051028;28;20180;-68
2023/03/17 00:37:08;;;;;;;3.20;2.77;;;;;;;;;;5036873;28;20463;-68
2023/03/17 00:39:33;;;;;;;2.70;2.50;;;;;;;;;;5029571;28;21269;-68
2023/03/17 00:41:58;;;;;;;6.20;3.13;;;;;;;;;;5037835;28;20426;-68
2023/03/17 00:44:24;;;;;;;5.10;2.70;;;;;;;;;;5033831;28;20184;-67
2023/03/17 00:46:50;;;;;;;3.47;3.17;;;;;;;;;;5036584;28;20282;-69
2023/03/17 00:49:18;;;;;;;4.00;3.23;;;;;;;;;;5034844;28;20600;-68
2023/03/17 00:51:43;;;;;;;4.20;3.50;;;;;;;;;;5035082;28;20827;-68
2023/03/17 00:54:09;;;;;;;2.83;2.30;;;;;;;;;;5029703;28;20426;-68
2023/03/17 00:56:36;;;;;;;3.37;3.03;;;;;;;;;;5050971;28;20273;-68
2023/03/17 00:59:02;;;;;;;4.50;3.10;;;;;;;;;;5036816;28;20438;-68
2023/03/17 01:01:27;;;;;;;3.33;3.00;;;;;;;;;;5036884;28;20446;-68
2023/03/17 01:03:52;;;;;;;4.70;2.70;;;;;;;;;;5038057;28;20426;-68
2023/03/17 01:06:19;;;;;;;3.43;3.13;;;;;;;;;;5025830;28;20219;-68
2023/03/17 01:08:44;;;;;;;4.37;3.43;;;;;;;;;;5033634;28;20602;-68
2023/03/17 01:11:13;;;;;;;3.83;2.90;;;;;;;;;;5042229;28;20426;-68
2023/03/17 01:13:39;;;;;;;3.83;2.93;;;;;;;;;;5056253;28;20182;-68
2023/03/17 01:16:08;;;;;;;4.43;3.00;;;;;;;;;;5041040;28;20449;-69
2023/03/17 01:18:34;;;;;;;4.37;3.83;;;;;;;;;;5038485;28;20181;-68
2023/03/17 01:20:59;;;;;;;3.27;2.93;;;;;;;;;;5040686;28;20415;-69
2023/03/17 01:23:24;;;;;;;3.50;3.00;;;;;;;;;;5036447;28;21153;-68
2023/03/17 01:25:50;;;;;;;3.33;3.00;;;;;;;;;;5039951;28;20200;-68
2023/03/17 01:28:17;;;;;;;4.17;3.43;;;;;;;;;;5039229;28;20190;-68
2023/03/17 01:30:42;;;;;;;3.90;3.37;;;;;;;;;;5040148;28;20190;-68
2023/03/17 01:33:09;;;;;;;5.70;3.30;;;;;;;;;;5039213;28;22159;-69
2023/03/17 01:35:35;;;;;;;5.47;3.57;;;;;;;;;;5039958;28;20234;-68
2023/03/17 01:38:02;;;;;;;5.20;3.90;;;;;;;;;;5050595;28;20459;-68
2023/03/17 01:40:29;;;;;;;4.13;3.37;;;;;;;;;;5030213;28;20431;-68
2023/03/17 01:43:17;;;;;;;4.13;3.30;;;;;;;;;;5031581;28;20430;-68
2023/03/17 01:46:01;;;;;;;4.80;3.47;;;;;;;;;;5020119;28;20490;-68
2023/03/17 01:48:27;;;;;;;9.30;3.57;;;;;;;;;;5035195;28;20484;-68
2023/03/17 01:50:53;;;;;;;4.07;3.60;;;;;;;;;;5029619;28;20431;-68
2023/03/17 01:53:20;;;;;;;4.00;3.60;;;;;;;;;;5031384;28;20441;-68
2023/03/17 01:55:46;;;;;;;3.90;3.03;;;;;;;;;;5025095;28;20548;-68
2023/03/17 01:58:13;;;;;;;3.57;3.03;;;;;;;;;;5025502;28;21017;-68
2023/03/17 02:00:38;;;;;;;3.77;3.47;;;;;;;;;;5028704;28;20847;-68
2023/03/17 02:03:04;;;;;;;8.07;4.13;;;;;;;;;;5029424;28;21017;-68
2023/03/17 02:05:31;;;;;;;5.67;4.00;;;;;;;;;;5029406;28;20206;-68
2023/03/17 02:07:56;;;;;;;4.63;4.23;;;;;;;;;;5021598;28;20476;-68
2023/03/17 02:10:23;;;;;;;4.13;3.47;;;;;;;;;;5030548;28;20434;-68
2023/03/17 02:12:54;;;;;;;5.07;3.80;;;;;;;;;;5027667;28;20190;-68
2023/03/17 02:15:20;;;;;;;4.57;3.80;;;;;;;;;;5022520;28;20675;-68
2023/03/17 02:17:45;;;;;;;4.00;3.10;;;;;;;;;;5027104;28;21231;-68
2023/03/17 02:20:31;;;;;;;5.10;3.77;;;;;;;;;;5030580;28;20917;-68
2023/03/17 02:22:57;;;;;;;3.83;3.23;;;;;;;;;;5001012;28;20192;-68
2023/03/17 02:25:23;;;;;;;4.23;3.43;;;;;;;;;;5027645;28;20647;-68
2023/03/17 02:28:10;;;;;;;6.63;3.53;;;;;;;;;;5029457;28;20948;-68
2023/03/17 02:30:35;;;;;;;3.93;3.53;;;;;;;;;;5024950;28;20448;-68
2023/03/17 02:33:01;;;;;;;3.90;3.50;;;;;;;;;;5046161;28;20965;-68
2023/03/17 02:35:26;;;;;;;6.23;3.83;;;;;;;;;;5029086;28;20261;-68
2023/03/17 02:37:52;;;;;;;4.63;3.70;;;;;;;;;;5031112;28;20332;-67
2023/03/17 02:40:17;;;;;;;3.73;3.43;;;;;;;;;;5034585;28;20181;-68
2023/03/17 02:42:43;;;;;;;3.87;3.50;;;;;;;;;;5038251;28;20176;-69
2023/03/17 02:45:10;;;;;;;3.97;3.67;;;;;;;;;;5032506;28;20192;-68
2023/03/17 02:47:35;;;;;;;3.90;3.50;;;;;;;;;;5030140;28;20199;-68
2023/03/17 02:50:01;;;;;;;4.30;3.70;;;;;;;;;;5023994;28;20898;-69
2023/03/17 02:52:26;;;;;;;3.93;3.53;;;;;;;;;;5027016;28;20704;-68
2023/03/17 02:54:52;;;;;;;3.73;3.33;;;;;;;;;;5023287;28;20294;-68
2023/03/17 02:57:17;;;;;;;5.70;4.70;;;;;;;;;;5029820;28;20208;-68
2023/03/17 02:59:42;;;;;;;4.10;3.33;;;;;;;;;;5028653;28;20196;-68
2023/03/17 03:02:08;;;;;;;4.00;3.53;;;;;;;;;;5030288;28;20191;-68
2023/03/17 03:04:33;;;;;;;3.60;3.30;;;;;;;;;;5024480;28;20890;-68
2023/03/17 03:06:59;;;;;;;4.30;3.60;;;;;;;;;;5023470;28;20218;-68
2023/03/17 03:09:24;;;;;;;6.53;3.60;;;;;;;;;;5030084;28;20194;-69
2023/03/17 03:11:50;;;;;;;7.07;3.70;;;;;;;;;;5030458;28;20220;-68
2023/03/17 03:14:15;;;;;;;3.83;3.43;;;;;;;;;;5033109;28;20513;-68
2023/03/17 03:16:42;;;;;;;3.23;3.00;;;;;;;;;;5032172;28;20219;-69
2023/03/17 03:19:07;;;;;;;3.30;3.00;;;;;;;;;;5041969;28;20258;-69
2023/03/17 03:21:33;;;;;;;4.00;3.60;;;;;;;;;;5032999;28;20442;-69
2023/03/17 03:23:58;;;;;;;3.93;3.53;;;;;;;;;;5034546;28;20198;-69
2023/03/17 03:26:24;;;;;;;4.60;3.07;;;;;;;;;;5030770;28;20208;-69
2023/03/17 03:28:50;;;;;;;3.63;2.90;;;;;;;;;;5032987;28;20191;-69
2023/03/17 03:31:15;;;;;;;3.90;3.17;;;;;;;;;;5031814;28;20183;-69
2023/03/17 03:33:41;;;;;;;6.77;3.00;;;;;;;;;;5034949;28;20434;-69
2023/03/17 03:36:07;;;;;;;5.07;3.27;;;;;;;;;;5034590;28;20196;-69
2023/03/17 03:38:33;;;;;;;5.93;3.57;;;;;;;;;;5037142;28;20186;-69
2023/03/17 03:40:58;;;;;;;3.10;2.80;;;;;;;;;;5034146;28;20434;-69
2023/03/17 03:43:23;;;;;;;4.73;3.30;;;;;;;;;;5033434;28;20188;-69
2023/03/17 03:45:49;;;;;;;4.73;3.07;;;;;;;;;;5035946;28;20788;-69
2023/03/17 03:48:14;;;;;;;4.60;3.17;;;;;;;;;;5031386;28;20196;-70
2023/03/17 03:50:39;;;;;;;3.37;2.80;;;;;;;;;;5035519;28;20829;-70
2023/03/17 03:53:05;;;;;;;3.47;3.17;;;;;;;;;;5035744;28;20254;-69
2023/03/17 03:55:30;;;;;;;4.60;3.17;;;;;;;;;;5036583;28;20184;-69
2023/03/17 03:57:55;;;;;;;4.57;3.00;;;;;;;;;;5036174;28;20204;-70
2023/03/17 04:00:20;;;;;;;3.70;3.07;;;;;;;;;;5038912;28;20180;-69
2023/03/17 04:02:46;;;;;;;4.83;3.10;;;;;;;;;;5033384;28;20246;-69
2023/03/17 04:05:12;;;;;;;3.30;2.70;;;;;;;;;;5034761;28;20261;-69
2023/03/17 04:07:37;;;;;;;3.43;2.80;;;;;;;;;;5031354;28;20219;-69
2023/03/17 04:10:03;;;;;;;3.40;3.10;;;;;;;;;;5029701;28;20437;-69
2023/03/17 04:12:28;;;;;;;3.30;2.80;;;;;;;;;;5034512;28;20179;-69
2023/03/17 04:14:54;;;;;;;3.47;3.00;;;;;;;;;;5036500;28;20186;-70
2023/03/17 04:17:19;;;;;;;3.67;2.90;;;;;;;;;;5030845;28;20211;-69
2023/03/17 04:19:45;;;;;;;5.83;2.97;;;;;;;;;;5034361;28;20180;-69
2023/03/17 04:22:12;;;;;;;3.27;2.97;;;;;;;;;;5032578;28;21117;-69
2023/03/17 04:24:37;;;;;;;2.50;2.30;;;;;;;;;;5030457;28;20638;-69
2023/03/17 04:27:02;;;;;;;2.90;2.57;;;;;;;;;;5035473;28;20489;-69
2023/03/17 04:29:28;;;;;;;4.43;3.30;;;;;;;;;;5033856;28;20612;-69
2023/03/17 04:31:53;;;;;;;3.47;2.77;;;;;;;;;;5036154;28;20180;-69
2023/03/17 04:34:18;;;;;;;10.00;2.67;;;;;;;;;;5027879;28;20718;-70
2023/03/17 04:36:45;;;;;;;3.27;2.80;;;;;;;;;;5034843;28;20287;-69
2023/03/17 04:39:10;;;;;;;2.57;2.33;;;;;;;;;;5031458;28;20552;-70
2023/03/17 04:41:36;;;;;;;3.30;2.97;;;;;;;;;;5029057;28;20445;-70
2023/03/17 04:44:01;;;;;;;5.40;3.20;;;;;;;;;;5029181;28;20212;-69
2023/03/17 04:46:26;;;;;;;3.57;2.77;;;;;;;;;;5034427;28;20246;-69
2023/03/17 04:48:51;;;;;;;3.17;2.40;;;;;;;;;;5028868;28;20181;-69
2023/03/17 04:51:17;;;;;;;4.00;2.47;;;;;;;;;;5026043;28;20259;-69
2023/03/17 04:53:43;;;;;;;3.60;2.77;;;;;;;;;;5033287;28;20181;-69
2023/03/17 04:56:09;;;;;;;3.73;2.60;;;;;;;;;;5033931;28;20220;-69
2023/03/17 04:58:35;;;;;;;3.27;2.30;;;;;;;;;;5031701;28;20860;-69
2023/03/17 05:01:01;;;;;;;3.90;2.50;;;;;;;;;;5035004;28;20188;-69
2023/03/17 05:03:26;;;;;;;3.03;2.73;;;;;;;;;;5023577;28;20616;-69
2023/03/17 05:05:52;;;;;;;8.63;3.27;;;;;;;;;;5038721;28;20458;-69
2023/03/17 05:08:18;;;;;;;3.43;2.50;;;;;;;;;;5029638;28;20207;-69
2023/03/17 05:10:44;;;;;;;2.40;2.00;;;;;;;;;;5038203;28;20199;-69
2023/03/17 05:13:09;;;;;;;3.17;2.37;;;;;;;;;;5039361;28;20782;-69
2023/03/17 05:15:35;;;;;;;4.60;2.80;;;;;;;;;;5037263;28;20207;-69
2023/03/17 05:18:00;;;;;;;3.43;2.50;;;;;;;;;;5032986;28;20208;-69
2023/03/17 05:20:26;;;;;;;2.73;2.43;;;;;;;;;;5030294;28;20472;-69
2023/03/17 05:22:51;;;;;;;4.43;2.50;;;;;;;;;;5037412;28;20190;-70
2023/03/17 05:25:17;;;;;;;3.00;2.70;;;;;;;;;;5029559;28;20572;-70
2023/03/17 05:27:42;;;;;;;4.60;3.00;;;;;;;;;;5028577;28;20191;-70
2023/03/17 05:30:08;;;;;;;3.33;2.50;;;;;;;;;;5033518;28;20180;-70
2023/03/17 05:32:34;;;;;;;3.07;2.80;;;;;;;;;;5027889;28;20179;-70
2023/03/17 05:35:00;;;;;;;3.30;2.90;;;;;;;;;;5034131;28;20247;-71
2023/03/17 05:37:25;;;;;;;3.93;3.40;;;;;;;;;;5031733;28;20863;-70
2023/03/17 05:39:52;;;;;;;3.93;3.07;;;;;;;;;;5025621;28;20223;-70
2023/03/17 05:42:17;;;;;;;3.70;3.30;;;;;;;;;;5033409;28;20694;-70
2023/03/17 05:44:43;;;;;;;4.40;3.20;;;;;;;;;;5032151;28;20525;-70
2023/03/17 05:47:08;;;;;;;5.40;2.90;;;;;;;;;;5029746;28;20701;-70
2023/03/17 05:49:34;;;;;;;6.50;3.43;;;;;;;;;;5028707;28;20246;-70
2023/03/17 05:51:59;;;;;;;4.23;2.90;;;;;;;;;;5028135;28;20206;-70
2023/03/17 05:54:25;;;;;;;4.67;3.43;;;;;;;;;;5018216;28;21061;-69
2023/03/17 05:56:50;;;;;;;3.30;3.00;;;;;;;;;;5024818;28;20207;-70
2023/03/17 05:59:17;;;;;;;5.87;3.03;;;;;;;;;;5017894;28;20184;-69
2023/03/17 06:01:42;;;;;;;2.83;2.27;;;;;;;;;;5021980;28;20184;-70
2023/03/17 06:04:08;;;;;;;5.17;2.80;;;;;;;;;;5031433;28;20438;-69
2023/03/17 06:06:33;;;;;;;2.90;2.60;;;;;;;;;;5020772;28;20215;-69
2023/03/17 06:08:59;;;;;;;3.10;2.80;;;;;;;;;;5029496;28;20277;-69
2023/03/17 06:11:25;;;;;;;2.87;2.47;;;;;;;;;;5031683;28;20180;-69
2023/03/17 06:13:50;;;;;;;4.47;2.70;;;;;;;;;;5031930;28;20427;-69
2023/03/17 06:16:16;;;;;;;5.40;2.77;;;;;;;;;;5021962;28;20331;-69
2023/03/17 06:18:41;;;;;;;4.40;2.83;;;;;;;;;;5023534;28;20184;-69
2023/03/17 06:21:06;;;;;;;2.50;2.13;;;;;;;;;;5029398;28;20939;-69
2023/03/17 06:23:32;;;;;;;3.53;2.63;;;;;;;;;;5025725;28;20184;-69
2023/03/17 06:25:57;;;;;;;4.77;2.50;;;;;;;;;;5024147;28;20220;-69
2023/03/17 06:28:22;;;;;;;3.83;2.57;;;;;;;;;;5020603;28;20176;-70
2023/03/17 06:30:48;;;;;;;4.23;2.50;;;;;;;;;;5027451;28;20537;-69
2023/03/17 06:33:14;;;;;;;2.87;2.40;;;;;;;;;;5032712;28;20180;-70
2023/03/17 06:35:40;;;;;;;2.80;2.27;;;;;;;;;;5031510;28;20183;-70
2023/03/17 06:38:05;;;;;;;3.93;3.03;;;;;;;;;;5017213;28;20466;-69
2023/03/17 06:40:32;;;;;;;8.13;3.60;;;;;;;;;;5034430;28;20211;-69
2023/03/17 06:42:58;;;;;;;2.60;2.40;;;;;;;;;;5035026;28;20188;-69
2023/03/17 06:45:23;;;;;;;3.90;3.10;;;;;;;;;;5031298;28;20434;-69
2023/03/17 06:47:49;;;;;;;3.33;3.00;;;;;;;;;;5031122;28;21009;-69
2023/03/17 06:50:15;;;;;;;2.50;2.30;;;;;;;;;;5028840;28;20629;-69
2023/03/17 06:52:40;;;;;;;5.07;3.17;;;;;;;;;;5034458;28;20235;-69
2023/03/17 06:55:06;;;;;;;3.50;2.50;;;;;;;;;;5032611;28;20176;-70
2023/03/17 06:57:31;;;;;;;3.80;2.67;;;;;;;;;;5032285;28;20203;-69
2023/03/17 06:59:56;;;;;;;6.73;3.20;;;;;;;;;;5033821;28;20225;-69
2023/03/17 07:02:21;;;;;;;4.50;3.00;;;;;;;;;;5031380;28;21647;-69
2023/03/17 07:04:47;;;;;;;4.93;2.93;;;;;;;;;;5027275;28;20187;-69
2023/03/17 07:07:12;;;;;;;2.90;2.60;;;;;;;;;;5031901;28;20297;-69
2023/03/17 07:09:38;;;;;;;3.90;2.63;;;;;;;;;;5028721;28;20551;-69
2023/03/17 07:12:04;;;;;;;3.30;2.60;;;;;;;;;;5026398;28;20176;-69
2023/03/17 07:14:34;;;;;;;4.20;3.00;;;;;;;;;;5031403;28;20430;-69
2023/03/17 07:17:00;;;;;;;4.10;2.53;;;;;;;;;;5029793;28;20500;-69
2023/03/17 07:19:26;;;;;;;3.57;2.90;;;;;;;;;;5030044;28;20434;-69
2023/03/17 07:21:51;;;;;;;3.50;2.90;;;;;;;;;;5031593;28;20218;-69
2023/03/17 07:24:17;;;;;;;3.20;2.80;;;;;;;;;;5032360;28;20445;-69
2023/03/17 07:26:42;;;;;;;3.30;2.40;;;;;;;;;;5033467;28;20217;-69
2023/03/17 07:29:08;;;;;;;2.83;2.63;;;;;;;;;;5029841;28;20179;-69
2023/03/17 07:31:34;;;;;;;4.43;2.80;;;;;;;;;;5030853;28;21055;-69
2023/03/17 07:33:59;;;;;;;4.57;2.60;;;;;;;;;;5032456;28;20517;-69
2023/03/17 07:36:25;;;;;;;3.50;2.40;;;;;;;;;;5028607;28;20187;-69
2023/03/17 07:38:50;;;;;;;5.27;2.63;;;;;;;;;;5030829;28;20192;-68
2023/03/17 07:41:15;;;;;;;4.63;2.77;;;;;;;;;;5029816;28;20520;-69
2023/03/17 07:43:41;;;;;;;5.80;3.03;;;;;;;;;;5032207;28;20180;-69
2023/03/17 07:46:07;;;;;;;4.50;2.50;;;;;;;;;;5029864;28;20305;-69
2023/03/17 07:48:33;;;;;;;3.83;2.70;;;;;;;;;;5028909;28;20184;-69
2023/03/17 07:50:58;;;;;;;3.17;2.87;;;;;;;;;;5031793;28;21134;-69
2023/03/17 07:53:24;;;;;;;4.60;2.67;;;;;;;;;;5029382;28;20523;-69
2023/03/17 07:55:49;;;;;;;2.83;2.63;;;;;;;;;;5029402;28;20187;-69
2023/03/17 07:58:15;;;;;;;4.70;2.73;;;;;;;;;;5019608;28;20296;-69
2023/03/17 08:00:40;;;;;;;3.07;2.50;;;;;;;;;;5029302;28;20241;-70
2023/03/17 08:03:05;;;;;;;2.80;2.07;;;;;;;;;;5029805;28;20195;-69
2023/03/17 08:05:31;;;;;;;3.40;2.00;;;;;;;;;;5025821;28;20229;-69
2023/03/17 08:07:57;;;;;;;3.20;2.67;;;;;;;;;;5022555;28;20217;-69
2023/03/17 08:10:23;;;;;;;3.23;2.40;;;;;;;;;;5020225;28;20192;-69
2023/03/17 08:12:50;;;;;;;6.27;2.90;;;;;;;;;;5026381;28;20577;-69
2023/03/17 08:15:16;;;;;;;2.53;2.33;;;;;;;;;;5034396;28;20215;-69
2023/03/17 08:17:41;;;;;;;3.33;2.40;;;;;;;;;;5031149;28;20824;-69
2023/03/17 08:20:08;;;;;;;2.93;2.23;;;;;;;;;;5033085;28;20189;-69
2023/03/17 08:22:33;;;;;;;2.90;2.40;;;;;;;;;;5031370;28;20562;-69
2023/03/17 08:24:59;;;;;;;2.60;2.23;;;;;;;;;;5034994;28;20434;-69
2023/03/17 08:27:24;;;;;;;3.27;2.37;;;;;;;;;;5028323;28;20218;-68
2023/03/17 08:29:50;;;;;;;3.27;2.80;;;;;;;;;;5031671;28;20188;-69
2023/03/17 08:32:15;;;;;;;3.60;2.83;;;;;;;;;;5037079;28;20697;-69
2023/03/17 08:34:43;;;;;;;2.83;2.30;;;;;;;;;;5028011;28;20176;-68
2023/03/17 08:37:08;;;;;;;3.20;2.37;;;;;;;;;;5033515;28;25560;-69
2023/03/17 08:39:34;;;;;;;2.47;2.20;;;;;;;;;;5029067;28;20917;-69
2023/03/17 08:41:59;;;;;;;3.60;2.70;;;;;;;;;;5031857;28;20542;-69
2023/03/17 08:44:25;;;;;;;2.93;2.40;;;;;;;;;;5031992;28;20222;-68
2023/03/17 08:46:50;;;;;;;4.27;2.43;;;;;;;;;;5032806;28;20298;-69
2023/03/17 08:49:16;;;;;;;3.80;2.33;;;;;;;;;;5036375;28;20180;-69
2023/03/17 08:51:42;;;;;;;2.30;2.07;;;;;;;;;;5031806;28;20173;-69
2023/03/17 08:54:08;;;;;;;5.63;2.40;;;;;;;;;;5051296;28;20675;-69
2023/03/17 08:56:35;;;;;;;2.33;2.10;;;;;;;;;;5034498;28;20522;-69
2023/03/17 08:59:01;;;;;;;4.27;2.70;;;;;;;;;;5037236;28;20438;-69
2023/03/17 09:01:26;;;;;;;3.53;2.33;;;;;;;;;;5035422;28;20604;-69
2023/03/17 09:03:52;;;;;;;5.43;2.97;;;;;;;;;;5036839;28;20184;-69
2023/03/17 09:06:17;;;;;;;2.90;2.57;;;;;;;;;;5035946;28;20219;-69
2023/03/17 09:08:48;;;;;;;4.90;3.03;;;;;;;;;;5034676;28;20515;-68
2023/03/17 09:11:15;;;;;;;4.90;2.30;;;;;;;;;;5027468;28;20176;-69
2023/03/17 09:13:40;;;;;;;2.40;2.10;;;;;;;;;;5027149;28;20992;-69
2023/03/17 09:16:07;;;;;;;2.83;2.53;;;;;;;;;;5035077;28;20434;-69
2023/03/17 09:18:33;;;;;;;6.50;2.40;;;;;;;;;;5025006;28;20294;-69
2023/03/17 09:20:59;;;;;;;2.97;2.60;;;;;;;;;;5029215;28;20916;-69
2023/03/17 09:23:24;;;;;;;2.47;2.27;;;;;;;;;;5035272;28;20481;-69
2023/03/17 09:25:50;;;;;;;5.30;2.30;;;;;;;;;;5035835;28;20257;-69
2023/03/17 09:28:16;;;;;;;3.43;2.40;;;;;;;;;;5029807;28;20203;-68
2023/03/17 09:30:41;;;;;;;6.10;2.50;;;;;;;;;;5015621;28;20569;-68
2023/03/17 09:33:09;;;;;;;3.20;2.73;;;;;;;;;;5027693;28;20434;-69
2023/03/17 09:35:34;;;;;;;3.73;2.60;;;;;;;;;;5028157;28;21046;-68
2023/03/17 09:37:59;;;;;;;5.10;2.20;;;;;;;;;;5020483;28;20477;-69
2023/03/17 09:40:32;;;;;;;4.50;3.17;;;;;;;;;;5029401;28;20186;-68
2023/03/17 09:43:16;;;;;;;4.13;2.60;;;;;;;;;;5027347;28;20188;-68
2023/03/17 09:45:42;;;;;;;3.90;2.60;;;;;;;;;;5029597;28;20437;-69
2023/03/17 09:48:10;;;;;;;5.83;3.03;;;;;;;;;;5028798;28;20446;-68
2023/03/17 09:50:41;;;;;;;3.23;2.57;;;;;;;;;;5033798;28;20293;-68
2023/03/17 09:53:14;;;;;;;4.97;2.80;;;;;;;;;;5031351;28;20434;-69
2023/03/17 09:55:40;;;;;;;4.33;2.60;;;;;;;;;;5032063;28;20419;-68
2023/03/17 09:58:08;;;;;;;4.67;2.47;;;;;;;;;;5043661;28;20946;-68
2023/03/17 10:00:34;;;;;;;4.57;2.67;;;;;;;;;;5030728;28;20422;-69
2023/03/17 10:03:00;;;;;;;5.23;2.40;;;;;;;;;;5035462;28;20435;-68
2023/03/17 10:05:26;;;;;;;4.93;2.53;;;;;;;;;;5031606;28;20176;-68
2023/03/17 10:08:01;;;;;;;5.20;2.70;;;;;;;;;;5032247;28;20212;-68
2023/03/17 10:10:29;;;;;;;2.73;2.50;;;;;;;;;;5033754;28;20921;-69
2023/03/17 10:13:03;;;;;;;6.43;2.60;;;;;;;;;;5035641;28;20947;-68
2023/03/17 10:15:39;;;;;;;4.20;2.73;;;;;;;;;;5026441;28;20439;-68
2023/03/17 10:18:10;;;;;;;5.10;3.03;;;;;;;;;;5033261;28;20442;-68
2023/03/17 10:20:37;;;;;;;5.70;3.50;;;;;;;;;;5032130;28;20424;-68
2023/03/17 10:23:05;;;;;;;4.40;2.90;;;;;;;;;;5030945;28;20949;-68
2023/03/17 10:25:32;;;;;;;3.00;2.70;;;;;;;;;;5034367;28;20423;-69
2023/03/17 10:28:00;;;;;;;3.53;2.63;;;;;;;;;;5032435;28;20449;-69
2023/03/17 10:30:26;;;;;;;8.20;3.30;;;;;;;;;;5029330;28;20435;-68
2023/03/17 10:32:52;;;;;;;3.70;2.73;;;;;;;;;;5035807;28;20422;-68
2023/03/17 10:35:18;;;;;;;5.57;2.70;;;;;;;;;;5033771;28;20176;-68
2023/03/17 10:37:45;;;;;;;3.50;2.97;;;;;;;;;;5033597;28;20450;-68
2023/03/17 10:40:19;;;;;;;2.97;2.63;;;;;;;;;;5028485;28;20176;-68
2023/03/17 10:42:50;;;;;;;4.17;3.40;;;;;;;;;;5030524;28;21000;-69
2023/03/17 10:45:37;;;;;;;5.63;3.20;;;;;;;;;;5031963;28;20833;-69
2023/03/17 10:48:06;;;;;;;4.00;3.30;;;;;;;;;;5019663;28;20561;-68
2023/03/17 10:50:32;;;;;;;5.17;3.10;;;;;;;;;;5031454;28;20514;-68
2023/03/17 10:52:59;;;;;;;4.70;3.60;;;;;;;;;;5032857;28;20427;-68
2023/03/17 10:55:37;;;;;;;4.30;2.87;;;;;;;;;;5029529;28;20870;-68
2023/03/17 10:58:23;;;;;;;3.53;3.23;;;;;;;;;;5033097;28;21340;-68
2023/03/17 11:00:56;;;;;;;6.43;3.20;;;;;;;;;;5027834;28;20935;-68
2023/03/17 11:03:23;;;;;;;4.90;3.60;;;;;;;;;;5046915;28;20786;-68
2023/03/17 11:06:01;;;;;;;3.53;3.00;;;;;;;;;;5033552;28;20458;-68
2023/03/17 11:08:29;;;;;;;6.90;3.83;;;;;;;;;;5031873;28;20438;-68
2023/03/17 11:10:55;;;;;;;5.83;3.67;;;;;;;;;;5032135;28;20425;-68
2023/03/17 11:13:27;;;;;;;6.93;3.20;;;;;;;;;;5029139;28;20475;-69
2023/03/17 11:15:56;;;;;;;5.13;2.93;;;;;;;;;;5026548;28;20434;-68
2023/03/17 11:18:25;;;;;;;5.13;3.33;;;;;;;;;;5026698;28;20462;-68
2023/03/17 11:20:53;;;;;;;5.90;3.93;;;;;;;;;;5028303;28;20992;-69
2023/03/17 11:23:31;;;;;;;5.20;3.67;;;;;;;;;;5034007;28;20956;-69
2023/03/17 11:26:03;;;;;;;5.87;3.37;;;;;;;;;;5032039;28;20458;-68
2023/03/17 11:28:32;;;;;;;6.50;3.20;;;;;;;;;;5029654;28;20837;-68
2023/03/17 11:31:04;;;;;;;4.90;3.33;;;;;;;;;;5030907;28;20435;-68
2023/03/17 11:33:34;;;;;;;6.77;4.20;;;;;;;;;;5032264;28;20427;-68
2023/03/17 11:36:08;;;;;;;4.10;3.23;;;;;;;;;;5021197;28;21893;-68
2023/03/17 11:38:38;;;;;;;6.13;3.60;;;;;;;;;;5020464;28;21310;-68
2023/03/17 11:41:10;;;;;;;7.37;3.80;;;;;;;;;;5029517;28;20518;-68
2023/03/17 11:43:53;;;;;;;4.50;3.43;;;;;;;;;;5035579;28;20429;-68
2023/03/17 11:46:26;;;;;;;5.50;3.20;;;;;;;;;;5028686;28;20470;-69
2023/03/17 11:49:10;;;;;;;4.10;3.33;;;;;;;;;;5026915;28;20506;-68
2023/03/17 11:51:55;;;;;;;5.50;3.37;;;;;;;;;;5033446;28;20457;-68
2023/03/17 11:54:23;;;;;;;5.00;3.60;;;;;;;;;;5025440;28;20434;-68
2023/03/17 11:56:53;;;;;;;6.70;3.37;;;;;;;;;;5051863;28;20488;-68
2023/03/17 11:59:18;;;;;;;4.93;3.43;;;;;;;;;;5028576;28;20449;-68
2023/03/17 12:02:05;;;;;;;5.63;3.33;;;;;;;;;;5026324;28;20438;-69
2023/03/17 12:04:36;;;;;;;8.27;3.63;;;;;;;;;;5028937;28;20699;-68
2023/03/17 12:07:17;;;;;;;4.67;3.20;;;;;;;;;;5034450;28;20519;-68
2023/03/17 12:09:45;;;;;;;4.83;3.30;;;;;;;;;;5029754;28;20429;-68
2023/03/17 12:12:12;;;;;;;4.97;3.33;;;;;;;;;;5037119;28;20435;-68
2023/03/17 12:14:45;;;;;;;4.30;3.37;;;;;;;;;;5032340;28;20422;-68
2023/03/17 12:17:14;;;;;;;6.43;3.70;;;;;;;;;;5032772;28;20874;-68
2023/03/17 12:19:51;;;;;;;6.30;3.93;;;;;;;;;;5050112;28;20434;-68
2023/03/17 12:22:21;;;;;;;6.20;4.37;;;;;;;;;;5033872;28;20459;-68
2023/03/17 12:24:46;;;;;;;4.57;3.83;;;;;;;;;;5034135;28;20442;-69
2023/03/17 12:27:35;;;;;;;6.87;4.33;;;;;;;;;;5030338;28;20465;-68
2023/03/17 12:30:16;;;;;;;5.07;3.20;;;;;;;;;;5025903;28;20642;-69
2023/03/17 12:33:00;;;;;;;6.23;3.97;;;;;;;;;;5025123;28;20503;-67
2023/03/17 12:35:27;;;;;;;5.50;3.80;;;;;;;;;;5023245;28;20505;-68
2023/03/17 12:37:54;;;;;;;7.60;4.40;;;;;;;;;;5033760;28;20460;-68
2023/03/17 12:40:27;;;;;;;9.80;4.13;;;;;;;;;;5031505;28;20437;-68
2023/03/17 12:43:11;;;;;;;5.70;3.77;;;;;;;;;;5026737;28;20427;-69
2023/03/17 12:45:42;;;;;;;7.90;4.87;;;;;;;;;;5033355;28;20437;-69
2023/03/17 12:48:10;;;;;;;5.57;4.00;;;;;;;;;;5031618;28;20613;-69
2023/03/17 12:50:54;;;;;;;9.90;4.60;;;;;;;;;;5033605;28;20427;-68
2023/03/17 12:53:25;;;;;;;7.17;4.70;;;;;;;;;;5033843;28;20798;-67
2023/03/17 12:55:51;;;;;;;5.67;4.27;;;;;;;;;;5031238;28;20434;-67
2023/03/17 12:58:29;;;;;;;8.10;4.73;;;;;;;;;;5034885;28;20957;-68
2023/03/17 13:01:03;;;;;;;8.83;4.90;;;;;;;;;;5027251;28;20513;-67
2023/03/17 13:03:31;;;;;;;6.30;4.43;;;;;;;;;;5024594;28;20499;-67
2023/03/17 13:06:01;;;;;;;8.73;5.30;;;;;;;;;;5021238;28;20994;-67
2023/03/17 13:08:30;;;;;;;5.53;4.00;;;;;;;;;;5018648;28;20440;-67
2023/03/17 13:11:14;;;;;;;8.03;4.90;;;;;;;;;;5027046;28;20447;-67
2023/03/17 13:13:43;;;;;;;7.43;5.13;;;;;;;;;;5030441;28;20434;-67
2023/03/17 13:16:27;;;;;;;5.13;4.00;;;;;;;;;;5027574;28;20438;-66
2023/03/17 13:19:05;;;;;;;7.00;4.87;;;;;;;;;;5024916;28;20529;-67
2023/03/17 13:21:31;;;;;;;8.53;4.90;;;;;;;;;;5014743;28;20427;-66
2023/03/17 13:23:58;;;;;;;7.73;4.67;;;;;;;;;;5023971;28;20987;-67
2023/03/17 13:26:43;;;;;;;7.30;4.20;;;;;;;;;;5024777;28;20220;-66
2023/03/17 13:29:22;;;;;;;9.77;4.80;;;;;;;;;;5017389;28;20434;-67
2023/03/17 13:31:47;;;;;;;5.80;4.50;;;;;;;;;;5023905;28;20554;-67
2023/03/17 13:34:15;;;;;;;7.77;5.20;;;;;;;;;;5020410;28;20465;-68
2023/03/17 13:36:45;;;;;;;7.80;4.60;;;;;;;;;;5024324;28;20200;-67
2023/03/17 13:39:29;;;;;;;6.87;4.50;;;;;;;;;;5021137;28;20434;-67
2023/03/17 13:42:06;;;;;;;9.07;5.03;;;;;;;;;;5023981;28;20466;-67
2023/03/17 13:44:34;;;;;;;6.27;4.73;;;;;;;;;;5024319;28;20526;-67
2023/03/17 13:47:18;;;;;;;10.47;4.63;;;;;;;;;;5027680;28;20512;-67
2023/03/17 13:49:49;;;;;;;9.40;5.13;;;;;;;;;;5023586;28;20565;-67
2023/03/17 13:52:16;;;;;;;10.20;4.90;;;;;;;;;;5022543;28;20462;-68
2023/03/17 13:54:49;;;;;;;8.47;4.60;;;;;;;;;;5026102;28;20442;-68
2023/03/17 13:57:22;;;;;;;9.80;4.83;;;;;;;;;;5015995;28;20471;-68
2023/03/17 14:00:04;;;;;;;5.53;4.30;;;;;;;;;;5022403;28;20450;-67
2023/03/17 14:02:31;;;;;;;10.97;6.20;;;;;;;;;;5020192;28;20463;-67
2023/03/17 14:04:58;;;;;;;7.13;5.03;;;;;;;;;;5033732;28;20438;-68
2023/03/17 14:07:26;;;;;;;7.67;4.50;;;;;;;;;;5020398;28;20558;-68
2023/03/17 14:09:56;;;;;;;9.87;4.63;;;;;;;;;;5027787;28;20430;-68
2023/03/17 14:12:48;;;;;;;7.03;5.00;;;;;;;;;;5022628;28;21515;-68
2023/03/17 14:15:35;;;;;;;6.17;4.63;;;;;;;;;;5022087;28;20541;-68
2023/03/17 14:18:07;;;;;;;7.33;5.13;;;;;;;;;;5011424;28;20458;-68
2023/03/17 14:20:32;;;;;;;6.53;4.60;;;;;;;;;;5022438;28;20442;-67
2023/03/17 14:23:00;;;;;;;5.87;4.60;;;;;;;;;;5033529;28;20435;-68
2023/03/17 14:25:29;;;;;;;5.93;4.00;;;;;;;;;;5032492;28;20232;-68
2023/03/17 14:27:55;;;;;;;7.00;4.50;;;;;;;;;;5023459;28;20478;-68
2023/03/17 14:30:22;;;;;;;7.50;4.73;;;;;;;;;;5026223;28;20439;-68
2023/03/17 14:32:49;;;;;;;9.47;5.10;;;;;;;;;;5030235;28;21186;-69
2023/03/17 14:35:15;;;;;;;9.10;4.97;;;;;;;;;;5043040;28;21017;-68
2023/03/17 14:37:40;;;;;;;6.70;4.83;;;;;;;;;;5021763;28;20532;-68
2023/03/17 14:40:25;;;;;;;7.87;5.33;;;;;;;;;;5027456;28;20242;-68
2023/03/17 14:42:50;;;;;;;9.70;5.47;;;;;;;;;;5047892;28;20520;-67
2023/03/17 14:45:20;;;;;;;5.93;5.07;;;;;;;;;;5019836;28;20456;-68
2023/03/17 14:47:46;;;;;;;7.20;5.57;;;;;;;;;;5027475;28;20612;-68